Time,TemperatureF,DewpointF,PressureIn,WindDirection,WindDirectionDegrees,WindSpeedMPH,WindSpeedGustMPH,Humidity,HourlyPrecipIn,Conditions,Clouds,dailyrainin,SoftwareType,DateUTC
2013-09-02 00:03:00,71.2,43.6,30.05,NNW,338,0.0,0.0,37,0.00,,,0.00,VWS V14.01,2013-09-01 21:03:00,
2013-09-02 00:08:00,71.2,43.6,30.05,NNW,338,0.0,0.0,37,0.00,,,0.00,VWS V14.01,2013-09-01 21:08:00,
2013-09-02 00:13:00,71.1,43.5,30.05,NNW,338,0.0,0.0,37,0.00,,,0.00,VWS V14.01,2013-09-01 21:13:00,
2013-09-02 00:18:00,70.9,43.3,30.04,NNW,338,0.0,0.0,37,0.00,,,0.00,VWS V14.01,2013-09-01 21:18:00,
2013-09-02 00:23:00,70.7,43.8,30.04,NNW,338,0.0,0.0,38,0.00,,,0.00,VWS V14.01,2013-09-01 21:23:00,
2013-09-02 00:28:00,70.7,43.8,30.04,NNW,338,0.0,0.0,38,0.00,,,0.00,VWS V14.01,2013-09-01 21:28:00,
2013-09-02 00:34:00,70.3,44.8,30.04,NNW,338,0.0,0.0,40,0.00,,,0.00,VWS V14.01,2013-09-01 21:34:00,
2013-09-02 00:39:00,70.3,44.8,30.04,NNW,338,0.0,0.0,40,0.00,,,0.00,VWS V14.01,2013-09-01 21:39:00,
2013-09-02 00:44:00,70.5,44.3,30.04,NNW,338,0.0,0.0,39,0.00,,,0.00,VWS V14.01,2013-09-01 21:44:00,
2013-09-02 00:49:00,70.7,43.8,30.04,NNW,338,0.0,0.0,38,0.00,,,0.00,VWS V14.01,2013-09-01 21:49:00,
2013-09-02 00:54:00,70.9,43.3,30.04,NNW,338,0.0,0.0,37,0.00,,,0.00,VWS V14.01,2013-09-01 21:54:00,
2013-09-02 00:59:00,71.1,43.5,30.04,NNW,338,0.0,0.0,37,0.00,,,0.00,VWS V14.01,2013-09-01 21:59:00,
2013-09-02 01:04:00,71.1,43.5,30.04,NNW,338,0.0,0.0,37,0.00,,,0.00,VWS V14.01,2013-09-01 22:04:00,
2013-09-02 01:09:00,70.9,43.3,30.04,NNW,338,0.0,0.0,37,0.00,,,0.00,VWS V14.01,2013-09-01 22:09:00,
2013-09-02 01:14:00,70.7,43.8,30.04,NNW,338,0.0,0.0,38,0.00,,,0.00,VWS V14.01,2013-09-01 22:14:00,
2013-09-02 01:19:00,70.3,44.2,30.04,NNW,338,0.0,0.0,39,0.00,,,0.00,VWS V14.01,2013-09-01 22:19:00,
2013-09-02 01:24:00,70.3,44.2,30.04,NNW,338,0.0,0.0,39,0.00,,,0.00,VWS V14.01,2013-09-01 22:24:00,
2013-09-02 01:29:00,70.0,44.6,30.04,NNW,338,0.0,0.0,40,0.00,,,0.00,VWS V14.01,2013-09-01 22:29:00,
2013-09-02 01:34:00,70.0,44.6,30.04,NNW,338,0.0,0.0,40,0.00,,,0.00,VWS V14.01,2013-09-01 22:34:00,
2013-09-02 01:39:00,69.8,45.0,30.04,NNW,338,0.0,0.0,41,0.00,,,0.00,VWS V14.01,2013-09-01 22:39:00,
2013-09-02 01:44:00,69.6,44.2,30.04,NNW,338,0.0,0.0,40,0.00,,,0.00,VWS V14.01,2013-09-01 22:44:00,
2013-09-02 01:49:00,69.8,42.3,30.04,NNW,338,0.0,0.0,37,0.00,,,0.00,VWS V14.01,2013-09-01 22:49:00,
2013-09-02 01:54:00,69.8,42.3,30.04,NNW,338,0.0,0.0,37,0.00,,,0.00,VWS V14.01,2013-09-01 22:54:00,
2013-09-02 01:59:00,70.0,41.8,30.03,NNW,338,0.0,0.0,36,0.00,,,0.00,VWS V14.01,2013-09-01 22:59:00,
2013-09-02 02:04:00,70.2,41.3,30.04,NNW,338,0.0,0.0,35,0.00,,,0.00,VWS V14.01,2013-09-01 23:04:00,
2013-09-02 02:09:00,70.3,41.3,30.03,NNW,338,0.0,0.0,35,0.00,,,0.00,VWS V14.01,2013-09-01 23:09:00,
2013-09-02 02:15:00,70.3,40.6,30.04,NNW,338,0.0,0.0,34,0.00,,,0.00,VWS V14.01,2013-09-01 23:15:00,
2013-09-02 02:20:00,70.3,40.6,30.04,NNW,338,0.0,0.0,34,0.00,,,0.00,VWS V14.01,2013-09-01 23:20:00,
2013-09-02 02:25:00,70.5,40.0,30.04,NNW,338,0.0,0.0,33,0.00,,,0.00,VWS V14.01,2013-09-01 23:25:00,
2013-09-02 02:30:00,70.7,39.4,30.03,NNW,338,0.0,0.0,32,0.00,,,0.00,VWS V14.01,2013-09-01 23:30:00,
2013-09-02 02:35:00,70.7,40.2,30.03,NNW,338,0.0,0.0,33,0.00,,,0.00,VWS V14.01,2013-09-01 23:35:00,
2013-09-02 02:40:00,70.3,39.8,30.03,NNW,338,0.0,0.0,33,0.00,,,0.00,VWS V14.01,2013-09-01 23:40:00,
2013-09-02 02:45:00,70.0,39.6,30.03,NNW,338,0.0,0.0,33,0.00,,,0.00,VWS V14.01,2013-09-01 23:45:00,
2013-09-02 02:50:00,70.0,39.6,30.02,NNW,338,0.0,0.0,33,0.00,,,0.00,VWS V14.01,2013-09-01 23:50:00,
2013-09-02 02:55:00,69.8,40.2,30.02,NNW,338,0.0,0.0,34,0.00,,,0.00,VWS V14.01,2013-09-01 23:55:00,
2013-09-02 03:00:00,69.8,40.2,30.02,NNW,338,0.0,0.0,34,0.00,,,0.00,VWS V14.01,2013-09-02 00:00:00,
2013-09-02 03:05:00,69.4,39.8,30.02,NNW,338,0.0,0.0,34,0.00,,,0.00,VWS V14.01,2013-09-02 00:05:00,
2013-09-02 03:10:00,69.4,40.5,30.03,NNW,338,0.0,0.0,35,0.00,,,0.00,VWS V14.01,2013-09-02 00:10:00,
2013-09-02 03:15:00,69.3,40.5,30.03,NNW,338,0.0,0.0,35,0.00,,,0.00,VWS V14.01,2013-09-02 00:15:00,
2013-09-02 03:20:00,69.1,41.0,30.02,NNW,338,0.0,0.0,36,0.00,,,0.00,VWS V14.01,2013-09-02 00:20:00,
2013-09-02 03:25:00,69.1,41.0,30.02,NNW,338,0.0,0.0,36,0.00,,,0.00,VWS V14.01,2013-09-02 00:25:00,
2013-09-02 03:30:00,68.9,40.8,30.02,NNW,338,0.0,0.0,36,0.00,,,0.00,VWS V14.01,2013-09-02 00:30:00,
2013-09-02 03:35:00,68.7,41.4,30.02,NNW,338,0.0,0.0,37,0.00,,,0.00,VWS V14.01,2013-09-02 00:35:00,
2013-09-02 03:40:00,68.7,41.4,30.02,NNW,338,0.0,0.0,37,0.00,,,0.00,VWS V14.01,2013-09-02 00:40:00,
2013-09-02 03:45:00,68.9,41.5,30.02,NNW,338,0.0,0.0,37,0.00,,,0.00,VWS V14.01,2013-09-02 00:45:00,
2013-09-02 03:50:00,68.7,41.4,30.02,NNW,338,0.0,0.0,37,0.00,,,0.00,VWS V14.01,2013-09-02 00:50:00,
2013-09-02 03:55:00,68.2,40.9,30.01,NNW,338,0.0,0.0,37,0.00,,,0.00,VWS V14.01,2013-09-02 00:55:00,
2013-09-02 04:00:00,68.2,40.9,30.01,NNW,338,0.0,0.0,37,0.00,,,0.00,VWS V14.01,2013-09-02 01:00:00,
2013-09-02 04:06:00,68.2,40.9,30.01,NNW,338,0.0,0.0,37,0.00,,,0.00,VWS V14.01,2013-09-02 01:06:00,
2013-09-02 04:11:00,68.2,40.9,30.01,NNW,338,0.0,0.0,37,0.00,,,0.00,VWS V14.01,2013-09-02 01:11:00,
2013-09-02 04:16:00,68.0,40.8,30.01,NNW,338,0.0,0.0,37,0.00,,,0.00,VWS V14.01,2013-09-02 01:16:00,
2013-09-02 04:21:00,67.8,41.3,30.01,NNW,338,0.0,0.0,38,0.00,,,0.00,VWS V14.01,2013-09-02 01:21:00,
2013-09-02 04:26:00,67.5,41.0,30.01,NNW,338,0.0,0.0,38,0.00,,,0.00,VWS V14.01,2013-09-02 01:26:00,
2013-09-02 04:31:00,67.3,41.5,30.01,NNW,338,0.0,0.0,39,0.00,,,0.00,VWS V14.01,2013-09-02 01:31:00,
2013-09-02 04:36:00,67.1,41.3,30.00,NNW,338,0.0,0.0,39,0.00,,,0.00,VWS V14.01,2013-09-02 01:36:00,
2013-09-02 04:41:00,67.1,41.3,30.00,NNW,338,0.0,0.0,39,0.00,,,0.00,VWS V14.01,2013-09-02 01:41:00,
2013-09-02 04:46:00,66.9,41.8,30.00,NNW,338,0.0,0.0,40,0.00,,,0.00,VWS V14.01,2013-09-02 01:46:00,
2013-09-02 04:51:00,67.1,42.0,30.00,NNW,338,0.0,0.0,40,0.00,,,0.00,VWS V14.01,2013-09-02 01:51:00,
2013-09-02 04:56:00,67.1,42.0,30.00,NNW,338,0.0,0.0,40,0.00,,,0.00,VWS V14.01,2013-09-02 01:56:00,
2013-09-02 05:01:00,67.3,42.8,30.00,NNW,338,0.0,0.0,41,0.00,,,0.00,VWS V14.01,2013-09-02 02:01:00,
2013-09-02 05:06:00,67.3,42.8,30.00,NNW,338,0.0,0.0,41,0.00,,,0.00,VWS V14.01,2013-09-02 02:06:00,
2013-09-02 05:11:00,66.9,43.7,30.00,NNW,338,0.0,0.0,43,0.00,,,0.00,VWS V14.01,2013-09-02 02:11:00,
2013-09-02 05:16:00,67.1,43.8,30.00,NNW,338,0.0,0.0,43,0.00,,,0.00,VWS V14.01,2013-09-02 02:16:00,
2013-09-02 05:21:00,67.1,43.8,30.00,NNW,338,0.0,0.0,43,0.00,,,0.00,VWS V14.01,2013-09-02 02:21:00,
2013-09-02 05:26:00,67.1,43.8,29.99,NNW,338,0.0,0.0,43,0.00,,,0.00,VWS V14.01,2013-09-02 02:26:00,
2013-09-02 05:31:00,67.1,43.8,29.99,NNW,338,0.0,0.0,43,0.00,,,0.00,VWS V14.01,2013-09-02 02:31:00,
2013-09-02 05:36:00,66.9,43.7,30.00,NNW,338,0.0,0.0,43,0.00,,,0.00,VWS V14.01,2013-09-02 02:36:00,
2013-09-02 05:41:00,67.1,44.5,30.00,NNW,338,0.0,0.0,44,0.00,,,0.00,VWS V14.01,2013-09-02 02:41:00,
2013-09-02 05:46:00,67.1,44.5,30.00,NNW,338,0.0,0.0,44,0.00,,,0.00,VWS V14.01,2013-09-02 02:46:00,
2013-09-02 05:51:00,67.1,44.5,30.00,NW,315,0.0,0.0,44,0.00,,,0.00,VWS V14.01,2013-09-02 02:51:00,
2013-09-02 05:57:00,67.5,44.2,30.00,NW,315,0.0,0.0,43,0.00,,,0.00,VWS V14.01,2013-09-02 02:57:00,
2013-09-02 06:02:00,67.5,44.2,30.00,NW,315,0.0,0.0,43,0.00,,,0.00,VWS V14.01,2013-09-02 03:02:00,
2013-09-02 06:07:00,67.5,44.2,30.00,NW,315,0.0,0.0,43,0.00,,,0.00,VWS V14.01,2013-09-02 03:07:00,
2013-09-02 06:12:00,67.1,44.5,30.01,NW,315,0.0,0.0,44,0.00,,,0.00,VWS V14.01,2013-09-02 03:12:00,
2013-09-02 06:17:00,66.9,44.3,30.01,NW,315,0.0,0.0,44,0.00,,,0.00,VWS V14.01,2013-09-02 03:17:00,
2013-09-02 06:22:00,66.7,43.5,30.01,NW,315,0.0,0.0,43,0.00,,,0.00,VWS V14.01,2013-09-02 03:22:00,
2013-09-02 06:27:00,67.1,44.5,30.02,NW,315,1.7,1.7,44,0.00,,,0.00,VWS V14.01,2013-09-02 03:27:00,
2013-09-02 06:32:00,68.5,44.5,30.02,NW,315,0.0,0.0,42,0.00,,,0.00,VWS V14.01,2013-09-02 03:32:00,
2013-09-02 06:37:00,68.7,44.7,30.02,NW,315,0.0,0.0,42,0.00,,,0.00,VWS V14.01,2013-09-02 03:37:00,
2013-09-02 06:42:00,68.7,45.3,30.02,NW,315,0.0,0.0,43,0.00,,,0.00,VWS V14.01,2013-09-02 03:42:00,
2013-09-02 06:47:00,68.9,46.1,30.02,NW,315,0.0,0.0,44,0.00,,,0.00,VWS V14.01,2013-09-02 03:47:00,
2013-09-02 06:52:00,68.9,46.1,30.03,NW,315,0.0,0.0,44,0.00,,,0.00,VWS V14.01,2013-09-02 03:52:00,
2013-09-02 06:57:00,68.7,45.9,30.03,NW,315,0.0,0.0,44,0.00,,,0.00,VWS V14.01,2013-09-02 03:57:00,
2013-09-02 07:01:00,68.5,45.7,30.03,NW,315,0.0,0.0,44,0.00,,,0.00,VWS V14.01,2013-09-02 04:01:00,
2013-09-02 07:02:00,68.7,45.9,30.03,NW,315,0.0,0.0,44,0.00,,,0.00,VWS V14.01,2013-09-02 04:02:00,
2013-09-02 07:03:00,68.7,45.9,30.03,NW,315,0.0,0.0,44,0.00,,,0.00,VWS V14.01,2013-09-02 04:03:00,
2013-09-02 07:04:00,68.7,46.5,30.03,NW,315,0.0,0.0,45,0.00,,,0.00,VWS V14.01,2013-09-02 04:04:00,
2013-09-02 07:09:00,68.7,46.5,30.03,NW,315,0.0,0.0,45,0.00,,,0.00,VWS V14.01,2013-09-02 04:09:00,
2013-09-02 07:14:00,68.7,46.5,30.03,NW,315,0.0,0.0,45,0.00,,,0.00,VWS V14.01,2013-09-02 04:14:00,
2013-09-02 07:19:00,68.5,46.3,30.03,NW,315,0.0,0.0,45,0.00,,,0.00,VWS V14.01,2013-09-02 04:19:00,
2013-09-02 07:24:00,68.5,46.9,30.03,NW,315,0.0,0.0,46,0.00,,,0.00,VWS V14.01,2013-09-02 04:24:00,
2013-09-02 07:30:00,68.5,47.5,30.03,NW,315,0.0,0.0,47,0.00,,,0.00,VWS V14.01,2013-09-02 04:30:00,
2013-09-02 07:35:00,68.7,47.6,30.03,NW,315,0.0,0.0,47,0.00,,,0.00,VWS V14.01,2013-09-02 04:35:00,
2013-09-02 07:40:00,69.1,47.4,30.04,NW,315,0.0,0.0,46,0.00,,,0.00,VWS V14.01,2013-09-02 04:40:00,
2013-09-02 07:45:00,69.8,48.1,30.04,NW,315,0.0,0.0,46,0.00,,,0.00,VWS V14.01,2013-09-02 04:45:00,
2013-09-02 07:50:00,70.2,47.8,30.04,NW,315,0.0,0.0,45,0.00,,,0.00,VWS V14.01,2013-09-02 04:50:00,
2013-09-02 07:55:00,70.7,48.3,30.04,NW,315,0.0,0.0,45,0.00,,,0.00,VWS V14.01,2013-09-02 04:55:00,
2013-09-02 08:00:00,71.4,48.3,30.04,NW,315,0.0,0.0,44,0.00,,,0.00,VWS V14.01,2013-09-02 05:00:00,
2013-09-02 08:05:00,71.8,48.7,30.04,NW,315,0.0,0.0,44,0.00,,,0.00,VWS V14.01,2013-09-02 05:05:00,
2013-09-02 08:10:00,72.5,48.7,30.04,NW,315,0.0,0.0,43,0.00,,,0.00,VWS V14.01,2013-09-02 05:10:00,
2013-09-02 08:15:00,73.6,49.1,30.04,NNW,338,0.0,0.0,42,0.00,,,0.00,VWS V14.01,2013-09-02 05:15:00,
2013-09-02 08:20:00,73.9,49.3,30.04,NNW,338,0.0,0.0,42,0.00,,,0.00,VWS V14.01,2013-09-02 05:20:00,
2013-09-02 08:25:00,74.5,48.6,30.04,NNE,22,0.0,0.0,40,0.00,,,0.00,VWS V14.01,2013-09-02 05:25:00,
2013-09-02 08:30:00,75.2,49.9,30.04,NNE,22,0.0,0.0,41,0.00,,,0.00,VWS V14.01,2013-09-02 05:30:00,
2013-09-02 08:35:00,75.9,49.2,30.04,NNE,22,0.0,0.0,39,0.00,,,0.00,VWS V14.01,2013-09-02 05:35:00,
2013-09-02 08:40:00,76.6,49.1,30.04,NNE,22,0.0,0.0,38,0.00,,,0.00,VWS V14.01,2013-09-02 05:40:00,
2013-09-02 08:45:00,77.0,49.4,30.04,NNE,22,0.0,0.0,38,0.00,,,0.00,VWS V14.01,2013-09-02 05:45:00,
2013-09-02 08:50:00,77.0,48.7,30.04,NNE,22,0.0,0.0,37,0.00,,,0.00,VWS V14.01,2013-09-02 05:50:00,
2013-09-02 08:55:00,77.2,48.9,30.04,NNE,22,0.0,0.0,37,0.00,,,0.00,VWS V14.01,2013-09-02 05:55:00,
2013-09-02 09:00:00,78.1,49.7,30.04,NNE,22,0.0,0.0,37,0.00,,,0.00,VWS V14.01,2013-09-02 06:00:00,
2013-09-02 09:05:00,78.4,49.2,30.04,NNE,22,0.0,0.0,36,0.00,,,0.00,VWS V14.01,2013-09-02 06:05:00,
2013-09-02 09:10:00,79.0,49.0,30.04,NNE,22,0.0,0.0,35,0.00,,,0.00,VWS V14.01,2013-09-02 06:10:00,
2013-09-02 09:15:00,79.3,48.5,30.04,NNE,22,0.0,0.0,34,0.00,,,0.00,VWS V14.01,2013-09-02 06:15:00,
2013-09-02 09:21:00,79.9,49.0,30.04,NNE,22,0.0,0.0,34,0.00,,,0.00,VWS V14.01,2013-09-02 06:21:00,
2013-09-02 09:26:00,80.1,47.6,30.04,NNE,22,0.0,0.0,32,0.00,,,0.00,VWS V14.01,2013-09-02 06:26:00,
2013-09-02 09:31:00,80.2,47.7,30.04,NNE,22,0.0,0.0,32,0.00,,,0.00,VWS V14.01,2013-09-02 06:31:00,
2013-09-02 09:36:00,81.1,47.6,30.05,NNE,22,0.0,0.0,31,0.00,,,0.00,VWS V14.01,2013-09-02 06:36:00,
2013-09-02 09:41:00,81.1,46.7,30.05,NE,45,0.0,0.0,30,0.00,,,0.00,VWS V14.01,2013-09-02 06:41:00,
2013-09-02 09:46:00,81.5,47.1,30.05,NE,45,0.0,0.0,30,0.00,,,0.00,VWS V14.01,2013-09-02 06:46:00,
2013-09-02 09:51:00,81.9,45.6,30.05,NNE,22,0.0,0.0,28,0.00,,,0.00,VWS V14.01,2013-09-02 06:51:00,
2013-09-02 09:56:00,82.0,46.6,30.05,NNE,22,0.0,0.0,29,0.00,,,0.00,VWS V14.01,2013-09-02 06:56:00,
2013-09-02 10:01:00,82.6,47.1,30.06,NNE,22,0.0,0.0,29,0.00,,,0.00,VWS V14.01,2013-09-02 07:01:00,
2013-09-02 10:06:00,82.8,48.2,30.05,NNE,22,0.0,0.0,30,0.00,,,0.00,VWS V14.01,2013-09-02 07:06:00,
2013-09-02 10:11:00,82.9,45.5,30.06,NNW,338,0.6,0.6,27,0.00,,,0.00,VWS V14.01,2013-09-02 07:11:00,
2013-09-02 10:16:00,82.0,45.7,30.06,North,0,0.0,3.8,28,0.00,,,0.00,VWS V14.01,2013-09-02 07:16:00,
2013-09-02 10:21:00,82.0,45.7,30.05,NNW,338,0.0,0.0,28,0.00,,,0.00,VWS V14.01,2013-09-02 07:21:00,
2013-09-02 10:26:00,81.7,45.4,30.05,ENE,68,0.0,0.0,28,0.00,,,0.00,VWS V14.01,2013-09-02 07:26:00,
2013-09-02 10:31:00,82.0,44.7,30.06,NNE,22,4.0,4.0,27,0.00,,,0.00,VWS V14.01,2013-09-02 07:31:00,
2013-09-02 10:36:00,82.0,45.7,30.06,NNE,22,2.4,2.4,28,0.00,,,0.00,VWS V14.01,2013-09-02 07:36:00,
2013-09-02 10:41:00,81.9,43.7,30.06,NNE,22,6.0,6.0,26,0.00,,,0.00,VWS V14.01,2013-09-02 07:41:00,
2013-09-02 10:46:00,82.0,44.7,30.06,NNE,22,0.2,0.2,27,0.00,,,0.00,VWS V14.01,2013-09-02 07:46:00,
2013-09-02 10:51:00,82.0,44.7,30.06,ENE,68,3.3,4.2,27,0.00,,,0.00,VWS V14.01,2013-09-02 07:51:00,
2013-09-02 10:56:00,82.2,44.9,30.06,NE,45,1.7,1.7,27,0.00,,,0.00,VWS V14.01,2013-09-02 07:56:00,
2013-09-02 11:01:00,82.4,45.1,30.06,ENE,68,0.0,0.0,27,0.00,,,0.00,VWS V14.01,2013-09-02 08:01:00,
2013-09-02 11:07:00,82.9,44.5,30.06,NE,45,1.7,1.7,26,0.00,,,0.00,VWS V14.01,2013-09-02 08:07:00,
2013-09-02 11:12:00,82.9,44.5,30.06,East,90,1.3,1.3,26,0.00,,,0.00,VWS V14.01,2013-09-02 08:12:00,
2013-09-02 11:17:00,82.9,44.5,30.06,NNE,22,5.5,5.5,26,0.00,,,0.00,VWS V14.01,2013-09-02 08:17:00,
2013-09-02 11:22:00,83.1,44.7,30.06,NE,45,4.6,4.6,26,0.00,,,0.00,VWS V14.01,2013-09-02 08:22:00,
2013-09-02 11:27:00,83.1,44.7,30.06,ENE,68,0.0,0.0,26,0.00,,,0.00,VWS V14.01,2013-09-02 08:27:00,
2013-09-02 11:32:00,83.5,44.0,30.07,NE,45,5.3,6.4,25,0.00,,,0.00,VWS V14.01,2013-09-02 08:32:00,
2013-09-02 11:37:00,83.5,45.0,30.06,NE,45,2.0,2.0,26,0.00,,,0.00,VWS V14.01,2013-09-02 08:37:00,
2013-09-02 11:42:00,82.8,44.4,30.07,NNE,22,2.0,2.0,26,0.00,,,0.00,VWS V14.01,2013-09-02 08:42:00,
2013-09-02 11:47:00,82.8,45.4,30.07,NE,45,3.5,8.0,27,0.00,,,0.00,VWS V14.01,2013-09-02 08:47:00,
2013-09-02 11:52:00,82.6,45.2,30.07,NNE,22,4.2,6.7,27,0.00,,,0.00,VWS V14.01,2013-09-02 08:52:00,
2013-09-02 11:57:00,82.6,46.2,30.06,ENE,68,1.1,1.1,28,0.00,,,0.00,VWS V14.01,2013-09-02 08:57:00,
2013-09-02 12:02:00,82.6,46.2,30.07,NE,45,3.1,3.1,28,0.00,,,0.00,VWS V14.01,2013-09-02 09:02:00,
2013-09-02 12:07:00,83.3,46.8,30.06,NNE,22,2.4,4.9,28,0.00,,,0.00,VWS V14.01,2013-09-02 09:07:00,
2013-09-02 12:12:00,83.3,46.8,30.07,North,0,0.0,0.0,28,0.00,,,0.00,VWS V14.01,2013-09-02 09:12:00,
2013-09-02 12:17:00,83.8,48.2,30.06,NNW,338,2.9,2.9,29,0.00,,,0.00,VWS V14.01,2013-09-02 09:17:00,
2013-09-02 12:22:00,83.7,47.1,30.06,NNW,338,4.2,5.5,28,0.00,,,0.00,VWS V14.01,2013-09-02 09:22:00,
2013-09-02 12:27:00,83.8,48.2,30.06,NE,45,5.5,5.5,29,0.00,,,0.00,VWS V14.01,2013-09-02 09:27:00,
2013-09-02 12:32:00,83.5,47.9,30.06,NE,45,7.6,7.6,29,0.00,,,0.00,VWS V14.01,2013-09-02 09:32:00,
2013-09-02 12:38:00,83.3,47.7,30.06,NNW,338,2.4,2.4,29,0.00,,,0.00,VWS V14.01,2013-09-02 09:38:00,
2013-09-02 12:43:00,83.5,47.9,30.06,North,0,0.0,0.0,29,0.00,,,0.00,VWS V14.01,2013-09-02 09:43:00,
2013-09-02 12:48:00,83.8,47.2,30.06,North,0,4.9,6.2,28,0.00,,,0.00,VWS V14.01,2013-09-02 09:48:00,
2013-09-02 12:53:00,84.2,47.6,30.06,NNW,338,0.0,0.0,28,0.00,,,0.00,VWS V14.01,2013-09-02 09:53:00,
2013-09-02 12:58:00,84.2,48.5,30.06,NNE,22,2.2,2.2,29,0.00,,,0.00,VWS V14.01,2013-09-02 09:58:00,
2013-09-02 13:03:00,84.6,47.9,30.06,NNW,338,7.6,10.0,28,0.00,,,0.00,VWS V14.01,2013-09-02 10:03:00,
2013-09-02 13:08:00,84.7,48.0,30.06,NNE,22,8.0,8.0,28,0.00,,,0.00,VWS V14.01,2013-09-02 10:08:00,
2013-09-02 13:13:00,84.7,48.9,30.06,NNE,22,7.3,7.3,29,0.00,,,0.00,VWS V14.01,2013-09-02 10:13:00,
2013-09-02 13:18:00,84.4,49.6,30.06,East,90,0.0,0.0,30,0.00,,,0.00,VWS V14.01,2013-09-02 10:18:00,
2013-09-02 13:23:00,84.9,47.2,30.06,NW,315,3.5,3.5,27,0.00,,,0.00,VWS V14.01,2013-09-02 10:23:00,
2013-09-02 13:28:00,85.1,48.3,30.06,NE,45,6.2,6.2,28,0.00,,,0.00,VWS V14.01,2013-09-02 10:28:00,
2013-09-02 13:33:00,85.1,47.4,30.06,NE,45,3.1,3.1,27,0.00,,,0.00,VWS V14.01,2013-09-02 10:33:00,
2013-09-02 13:38:00,85.1,47.4,30.06,NE,45,2.9,2.9,27,0.00,,,0.00,VWS V14.01,2013-09-02 10:38:00,
2013-09-02 13:43:00,85.1,47.4,30.06,NNE,22,2.0,2.0,27,0.00,,,0.00,VWS V14.01,2013-09-02 10:43:00,
2013-09-02 13:48:00,85.3,48.5,30.05,NE,45,2.4,2.4,28,0.00,,,0.00,VWS V14.01,2013-09-02 10:48:00,
2013-09-02 13:53:00,85.1,49.3,30.05,North,0,2.4,2.4,29,0.00,,,0.00,VWS V14.01,2013-09-02 10:53:00,
2013-09-02 13:58:00,85.3,49.4,30.05,NNE,22,7.6,7.6,29,0.00,,,0.00,VWS V14.01,2013-09-02 10:58:00,
2013-09-02 14:03:00,84.9,49.1,30.05,NE,45,0.0,0.0,29,0.00,,,0.00,VWS V14.01,2013-09-02 11:03:00,
2013-09-02 14:08:00,85.3,50.3,30.05,ENE,68,0.8,0.8,30,0.00,,,0.00,VWS V14.01,2013-09-02 11:08:00,
2013-09-02 14:13:00,84.4,50.5,30.04,East,90,0.8,0.8,31,0.00,,,0.00,VWS V14.01,2013-09-02 11:13:00,
2013-09-02 14:18:00,84.7,50.7,30.04,NE,45,1.7,2.9,31,0.00,,,0.00,VWS V14.01,2013-09-02 11:18:00,
2013-09-02 14:23:00,84.7,51.6,30.04,NE,45,5.3,5.3,32,0.00,,,0.00,VWS V14.01,2013-09-02 11:23:00,
2013-09-02 14:29:00,84.6,49.8,30.04,NE,45,5.3,5.3,30,0.00,,,0.00,VWS V14.01,2013-09-02 11:29:00,
2013-09-02 14:34:00,84.4,50.5,30.04,NNE,22,6.9,6.9,31,0.00,,,0.00,VWS V14.01,2013-09-02 11:34:00,
2013-09-02 14:39:00,84.2,52.0,30.04,North,0,7.8,7.8,33,0.00,,,0.00,VWS V14.01,2013-09-02 11:39:00,
2013-09-02 14:44:00,83.8,51.6,30.04,NE,45,5.3,6.9,33,0.00,,,0.00,VWS V14.01,2013-09-02 11:44:00,
2013-09-02 14:49:00,83.7,52.3,30.03,ESE,112,4.0,4.0,34,0.00,,,0.00,VWS V14.01,2013-09-02 11:49:00,
2013-09-02 14:54:00,83.7,52.3,30.03,ENE,68,1.5,1.5,34,0.00,,,0.00,VWS V14.01,2013-09-02 11:54:00,
2013-09-02 14:59:00,83.5,52.2,30.03,East,90,2.0,2.0,34,0.00,,,0.00,VWS V14.01,2013-09-02 11:59:00,
2013-09-02 15:04:00,83.3,52.0,30.03,ESE,112,2.9,2.9,34,0.00,,,0.00,VWS V14.01,2013-09-02 12:04:00,
2013-09-02 15:09:00,83.3,52.0,30.04,NNE,22,5.1,5.1,34,0.00,,,0.00,VWS V14.01,2013-09-02 12:09:00,
2013-09-02 15:14:00,82.9,53.2,30.04,East,90,6.0,6.0,36,0.00,,,0.00,VWS V14.01,2013-09-02 12:14:00,
2013-09-02 15:19:00,83.3,53.5,30.03,ENE,68,5.5,5.5,36,0.00,,,0.00,VWS V14.01,2013-09-02 12:19:00,
2013-09-02 15:24:00,83.1,52.6,30.04,ENE,68,3.1,6.9,35,0.00,,,0.00,VWS V14.01,2013-09-02 12:24:00,
2013-09-02 15:29:00,83.3,53.5,30.04,East,90,3.3,3.3,36,0.00,,,0.00,VWS V14.01,2013-09-02 12:29:00,
2013-09-02 15:34:00,82.9,53.2,30.04,ENE,68,2.2,2.2,36,0.00,,,0.00,VWS V14.01,2013-09-02 12:34:00,
2013-09-02 15:39:00,82.6,52.9,30.04,ENE,68,5.1,5.1,36,0.00,,,0.00,VWS V14.01,2013-09-02 12:39:00,
2013-09-02 15:44:00,82.9,53.2,30.04,ENE,68,3.8,3.8,36,0.00,,,0.00,VWS V14.01,2013-09-02 12:44:00,
2013-09-02 15:49:00,82.9,52.4,30.04,NE,45,2.0,3.3,35,0.00,,,0.00,VWS V14.01,2013-09-02 12:49:00,
2013-09-02 15:54:00,83.3,53.5,30.04,NE,45,4.0,4.0,36,0.00,,,0.00,VWS V14.01,2013-09-02 12:54:00,
2013-09-02 15:59:00,83.5,53.0,30.04,NE,45,0.0,0.0,35,0.00,,,0.00,VWS V14.01,2013-09-02 12:59:00,
2013-09-02 16:04:00,83.3,52.0,30.04,NE,45,6.2,6.7,34,0.00,,,0.00,VWS V14.01,2013-09-02 13:04:00,
2013-09-02 16:09:00,82.8,51.6,30.03,NE,45,4.6,7.3,34,0.00,,,0.00,VWS V14.01,2013-09-02 13:09:00,
2013-09-02 16:14:00,82.6,51.4,30.03,NE,45,3.5,6.9,34,0.00,,,0.00,VWS V14.01,2013-09-02 13:14:00,
2013-09-02 16:20:00,82.9,52.4,30.03,NE,45,1.7,1.7,35,0.00,,,0.00,VWS V14.01,2013-09-02 13:20:00,
2013-09-02 16:25:00,82.9,51.7,30.03,NE,45,0.6,0.6,34,0.00,,,0.00,VWS V14.01,2013-09-02 13:25:00,
2013-09-02 16:30:00,82.4,51.2,30.03,NE,45,6.0,7.3,34,0.00,,,0.00,VWS V14.01,2013-09-02 13:30:00,
2013-09-02 16:35:00,82.0,51.6,30.03,North,0,7.6,7.6,35,0.00,,,0.00,VWS V14.01,2013-09-02 13:35:00,
2013-09-02 16:40:00,82.0,51.6,30.03,NNE,22,4.4,4.4,35,0.00,,,0.00,VWS V14.01,2013-09-02 13:40:00,
2013-09-02 16:45:00,82.4,52.0,30.03,East,90,1.5,1.5,35,0.00,,,0.00,VWS V14.01,2013-09-02 13:45:00,
2013-09-02 16:50:00,82.4,52.8,30.03,ENE,68,2.6,2.6,36,0.00,,,0.00,VWS V14.01,2013-09-02 13:50:00,
2013-09-02 16:55:00,82.4,54.2,30.03,ESE,112,2.0,2.0,38,0.00,,,0.00,VWS V14.01,2013-09-02 13:55:00,
2013-09-02 17:00:00,82.0,53.9,30.04,NNE,22,4.9,4.9,38,0.00,,,0.00,VWS V14.01,2013-09-02 14:00:00,
2013-09-02 17:05:00,81.7,53.6,30.04,ENE,68,2.9,2.9,38,0.00,,,0.00,VWS V14.01,2013-09-02 14:05:00,
2013-09-02 17:10:00,81.1,54.5,30.04,NE,45,0.0,0.0,40,0.00,,,0.00,VWS V14.01,2013-09-02 14:10:00,
2013-09-02 17:15:00,80.8,55.5,30.04,East,90,4.6,4.6,42,0.00,,,0.00,VWS V14.01,2013-09-02 14:15:00,
2013-09-02 17:20:00,80.1,56.2,30.04,ENE,68,4.6,4.6,44,0.00,,,0.00,VWS V14.01,2013-09-02 14:20:00,
2013-09-02 17:25:00,79.3,56.1,30.04,ENE,68,1.1,1.1,45,0.00,,,0.00,VWS V14.01,2013-09-02 14:25:00,
2013-09-02 17:30:00,79.3,56.1,30.04,ENE,68,1.1,1.1,45,0.00,,,0.00,VWS V14.01,2013-09-02 14:30:00,
2013-09-02 17:35:00,79.3,55.5,30.04,East,90,5.8,5.8,44,0.00,,,0.00,VWS V14.01,2013-09-02 14:35:00,
2013-09-02 17:40:00,79.3,56.1,30.04,NE,45,0.0,0.0,45,0.00,,,0.00,VWS V14.01,2013-09-02 14:40:00,
2013-09-02 17:45:00,79.3,56.1,30.04,NE,45,0.2,5.8,45,0.00,,,0.00,VWS V14.01,2013-09-02 14:45:00,
2013-09-02 17:50:00,79.7,57.7,30.04,ENE,68,1.5,1.5,47,0.00,,,0.00,VWS V14.01,2013-09-02 14:50:00,
2013-09-02 17:55:00,79.5,58.7,30.04,NE,45,0.0,0.0,49,0.00,,,0.00,VWS V14.01,2013-09-02 14:55:00,
2013-09-02 18:00:00,79.3,59.0,30.04,ENE,68,2.6,2.6,50,0.00,,,0.00,VWS V14.01,2013-09-02 15:00:00,
2013-09-02 18:05:00,79.0,58.2,30.05,NE,45,0.0,0.6,49,0.00,,,0.00,VWS V14.01,2013-09-02 15:05:00,
2013-09-02 18:11:00,78.4,58.2,30.04,SE,135,0.0,0.0,50,0.00,,,0.00,VWS V14.01,2013-09-02 15:11:00,
2013-09-02 18:16:00,77.9,57.2,30.05,ESE,112,2.4,4.2,49,0.00,,,0.00,VWS V14.01,2013-09-02 15:16:00,
2013-09-02 18:21:00,77.9,57.2,30.05,East,90,2.2,4.4,49,0.00,,,0.00,VWS V14.01,2013-09-02 15:21:00,
2013-09-02 18:26:00,78.1,55.6,30.05,ENE,68,1.7,6.0,46,0.00,,,0.00,VWS V14.01,2013-09-02 15:26:00,
2013-09-02 18:31:00,78.1,55.6,30.05,NE,45,0.0,0.0,46,0.00,,,0.00,VWS V14.01,2013-09-02 15:31:00,
2013-09-02 18:36:00,77.9,55.4,30.04,ESE,112,2.6,2.6,46,0.00,,,0.00,VWS V14.01,2013-09-02 15:36:00,
2013-09-02 18:41:00,77.9,56.0,30.04,ENE,68,0.0,0.0,47,0.00,,,0.00,VWS V14.01,2013-09-02 15:41:00,
2013-09-02 18:46:00,78.1,56.2,30.05,ESE,112,0.6,0.6,47,0.00,,,0.00,VWS V14.01,2013-09-02 15:46:00,
2013-09-02 18:51:00,77.9,57.2,30.05,ESE,112,2.2,2.2,49,0.00,,,0.00,VWS V14.01,2013-09-02 15:51:00,
2013-09-02 18:56:00,77.7,57.6,30.05,ENE,68,2.6,2.6,50,0.00,,,0.00,VWS V14.01,2013-09-02 15:56:00,
2013-09-02 19:01:00,77.5,57.9,30.05,ENE,68,0.0,0.0,51,0.00,,,0.00,VWS V14.01,2013-09-02 16:01:00,
2013-09-02 19:06:00,77.2,58.7,30.05,ESE,112,4.0,4.0,53,0.00,,,0.00,VWS V14.01,2013-09-02 16:06:00,
2013-09-02 19:11:00,77.0,59.6,30.05,ESE,112,0.0,0.0,55,0.00,,,0.00,VWS V14.01,2013-09-02 16:11:00,
2013-09-02 19:16:00,76.6,59.7,30.05,ESE,112,0.0,0.0,56,0.00,,,0.00,VWS V14.01,2013-09-02 16:16:00,
2013-09-02 19:21:00,76.5,60.1,30.05,ENE,68,0.0,0.0,57,0.00,,,0.00,VWS V14.01,2013-09-02 16:21:00,
2013-09-02 19:26:00,76.3,59.9,30.05,ENE,68,0.0,0.0,57,0.00,,,0.00,VWS V14.01,2013-09-02 16:26:00,
2013-09-02 19:31:00,76.3,59.9,30.05,ENE,68,0.0,0.0,57,0.00,,,0.00,VWS V14.01,2013-09-02 16:31:00,
2013-09-02 19:36:00,76.1,59.2,30.05,ENE,68,0.0,0.0,56,0.00,,,0.00,VWS V14.01,2013-09-02 16:36:00,
2013-09-02 19:41:00,75.9,59.5,30.06,East,90,0.0,0.0,57,0.00,,,0.00,VWS V14.01,2013-09-02 16:41:00,
2013-09-02 19:46:00,75.7,59.8,30.06,SE,135,0.0,0.0,58,0.00,,,0.00,VWS V14.01,2013-09-02 16:46:00,
2013-09-02 19:51:00,75.4,59.1,30.06,SE,135,0.0,0.0,57,0.00,,,0.00,VWS V14.01,2013-09-02 16:51:00,
2013-09-02 19:56:00,75.4,59.6,30.06,SE,135,0.0,0.0,58,0.00,,,0.00,VWS V14.01,2013-09-02 16:56:00,
2013-09-02 20:02:00,75.2,59.4,30.06,SE,135,0.0,0.0,58,0.00,,,0.00,VWS V14.01,2013-09-02 17:02:00,
2013-09-02 20:07:00,74.8,59.5,30.06,SE,135,0.0,0.0,59,0.00,,,0.00,VWS V14.01,2013-09-02 17:07:00,
2013-09-02 20:12:00,74.7,59.4,30.06,SE,135,0.0,0.0,59,0.00,,,0.00,VWS V14.01,2013-09-02 17:12:00,
2013-09-02 20:17:00,74.5,59.2,30.06,SE,135,0.0,0.0,59,0.00,,,0.00,VWS V14.01,2013-09-02 17:17:00,
2013-09-02 20:22:00,74.5,59.2,30.06,SE,135,0.0,0.0,59,0.00,,,0.00,VWS V14.01,2013-09-02 17:22:00,
2013-09-02 20:27:00,74.3,59.0,30.06,SE,135,0.0,0.0,59,0.00,,,0.00,VWS V14.01,2013-09-02 17:27:00,
2013-09-02 20:32:00,74.1,59.3,30.06,SE,135,0.0,0.0,60,0.00,,,0.00,VWS V14.01,2013-09-02 17:32:00,
2013-09-02 20:37:00,74.1,59.3,30.07,SE,135,0.0,0.0,60,0.00,,,0.00,VWS V14.01,2013-09-02 17:37:00,
2013-09-02 20:42:00,74.1,59.3,30.06,SE,135,0.0,0.0,60,0.00,,,0.00,VWS V14.01,2013-09-02 17:42:00,
2013-09-02 20:47:00,73.9,59.1,30.07,SE,135,0.0,0.0,60,0.00,,,0.00,VWS V14.01,2013-09-02 17:47:00,
2013-09-02 20:52:00,73.9,59.6,30.07,SE,135,0.0,0.0,61,0.00,,,0.00,VWS V14.01,2013-09-02 17:52:00,
2013-09-02 20:57:00,73.9,59.6,30.07,SE,135,0.6,0.6,61,0.00,,,0.00,VWS V14.01,2013-09-02 17:57:00,
2013-09-02 21:02:00,73.8,59.5,30.07,SE,135,0.0,0.0,61,0.00,,,0.00,VWS V14.01,2013-09-02 18:02:00,
2013-09-02 21:07:00,73.6,59.3,30.07,SE,135,0.0,0.0,61,0.00,,,0.00,VWS V14.01,2013-09-02 18:07:00,
2013-09-02 21:12:00,73.6,59.3,30.07,SE,135,0.8,0.8,61,0.00,,,0.00,VWS V14.01,2013-09-02 18:12:00,
2013-09-02 21:17:00,73.4,59.6,30.07,SE,135,0.0,0.0,62,0.00,,,0.00,VWS V14.01,2013-09-02 18:17:00,
2013-09-02 21:22:00,73.4,59.6,30.07,SE,135,0.0,0.0,62,0.00,,,0.00,VWS V14.01,2013-09-02 18:22:00,
2013-09-02 21:27:00,73.4,59.6,30.07,SE,135,0.0,0.0,62,0.00,,,0.00,VWS V14.01,2013-09-02 18:27:00,
2013-09-02 21:32:00,73.4,60.0,30.07,SE,135,0.0,0.0,63,0.00,,,0.00,VWS V14.01,2013-09-02 18:32:00,
2013-09-02 21:37:00,73.2,59.8,30.07,SE,135,0.0,0.0,63,0.00,,,0.00,VWS V14.01,2013-09-02 18:37:00,
2013-09-02 21:42:00,73.0,59.6,30.08,SE,135,0.0,0.0,63,0.00,,,0.00,VWS V14.01,2013-09-02 18:42:00,
2013-09-02 21:47:00,73.0,59.6,30.07,SE,135,0.0,0.0,63,0.00,,,0.00,VWS V14.01,2013-09-02 18:47:00,
2013-09-02 21:53:00,73.0,59.6,30.07,SE,135,0.0,0.0,63,0.00,,,0.00,VWS V14.01,2013-09-02 18:53:00,
2013-09-02 21:58:00,73.0,59.6,30.07,SE,135,0.0,0.0,63,0.00,,,0.00,VWS V14.01,2013-09-02 18:58:00,
2013-09-02 22:03:00,73.0,59.6,30.07,SE,135,0.0,0.0,63,0.00,,,0.00,VWS V14.01,2013-09-02 19:03:00,
2013-09-02 22:08:00,72.9,59.5,30.08,SE,135,0.0,0.0,63,0.00,,,0.00,VWS V14.01,2013-09-02 19:08:00,
2013-09-02 22:13:00,72.7,59.3,30.08,SE,135,0.0,0.0,63,0.00,,,0.00,VWS V14.01,2013-09-02 19:13:00,
2013-09-02 22:18:00,72.7,59.3,30.08,SE,135,0.0,0.0,63,0.00,,,0.00,VWS V14.01,2013-09-02 19:18:00,
2013-09-02 22:23:00,72.7,59.3,30.08,SE,135,0.0,0.0,63,0.00,,,0.00,VWS V14.01,2013-09-02 19:23:00,
2013-09-02 22:28:00,72.7,59.3,30.08,SE,135,0.0,0.0,63,0.00,,,0.00,VWS V14.01,2013-09-02 19:28:00,
2013-09-02 22:33:00,72.5,59.2,30.08,SE,135,0.0,0.0,63,0.00,,,0.00,VWS V14.01,2013-09-02 19:33:00,
2013-09-02 22:38:00,72.5,59.2,30.08,SE,135,0.0,0.0,63,0.00,,,0.00,VWS V14.01,2013-09-02 19:38:00,
2013-09-02 22:43:00,72.5,59.2,30.08,SE,135,0.0,0.0,63,0.00,,,0.00,VWS V14.01,2013-09-02 19:43:00,
2013-09-02 22:48:00,72.5,59.2,30.08,SE,135,0.0,0.0,63,0.00,,,0.00,VWS V14.01,2013-09-02 19:48:00,
2013-09-02 22:53:00,72.5,59.2,30.08,SE,135,0.0,0.0,63,0.00,,,0.00,VWS V14.01,2013-09-02 19:53:00,
2013-09-02 22:58:00,72.7,59.3,30.08,SE,135,0.0,0.0,63,0.00,,,0.00,VWS V14.01,2013-09-02 19:58:00,
2013-09-02 23:03:00,72.7,59.3,30.08,SE,135,0.0,0.0,63,0.00,,,0.00,VWS V14.01,2013-09-02 20:03:00,
2013-09-02 23:08:00,72.5,59.2,30.08,SE,135,0.0,0.0,63,0.00,,,0.00,VWS V14.01,2013-09-02 20:08:00,
2013-09-02 23:13:00,72.5,59.2,30.08,SE,135,0.0,0.0,63,0.00,,,0.00,VWS V14.01,2013-09-02 20:13:00,
2013-09-02 23:18:00,72.3,58.5,30.08,SE,135,0.0,0.0,62,0.00,,,0.00,VWS V14.01,2013-09-02 20:18:00,
2013-09-02 23:23:00,72.3,58.5,30.08,SE,135,0.0,0.0,62,0.00,,,0.00,VWS V14.01,2013-09-02 20:23:00,
2013-09-02 23:28:00,72.1,58.8,30.08,SE,135,0.0,0.0,63,0.00,,,0.00,VWS V14.01,2013-09-02 20:28:00,
2013-09-02 23:33:00,71.8,58.1,30.08,SE,135,0.0,0.0,62,0.00,,,0.00,VWS V14.01,2013-09-02 20:33:00,
2013-09-02 23:38:00,71.6,57.9,30.08,SE,135,0.0,0.0,62,0.00,,,0.00,VWS V14.01,2013-09-02 20:38:00,
2013-09-02 23:43:00,71.6,58.3,30.08,SE,135,0.0,0.0,63,0.00,,,0.00,VWS V14.01,2013-09-02 20:43:00,
2013-09-02 23:49:00,71.4,58.6,30.08,SE,135,0.0,0.0,64,0.00,,,0.00,VWS V14.01,2013-09-02 20:49:00,
2013-09-02 23:54:00,71.2,58.4,30.08,SE,135,0.0,0.0,64,0.00,,,0.00,VWS V14.01,2013-09-02 20:54:00,
2013-09-02 23:59:00,71.1,58.3,30.08,SE,135,0.0,0.0,64,0.00,,,0.00,VWS V14.01,2013-09-02 20:59:00,